createdAt,value
2022-12-17T00:02:01.538Z,7.68
2022-12-17T00:04:47.649Z,15.02
2022-12-17T00:07:33.482Z,11.43
2022-12-17T00:10:19.581Z,9.85
2022-12-17T00:13:09.088Z,8.15
2022-12-17T00:15:55.942Z,10.98
2022-12-17T00:18:42.580Z,9.30
2022-12-17T00:21:28.919Z,11.68
2022-12-17T00:24:15.145Z,10.48
2022-12-17T00:27:01.399Z,9.85
2022-12-17T00:29:47.484Z,13.52
2022-12-17T00:32:33.441Z,12.80
2022-12-17T00:35:19.548Z,11.07
2022-12-17T00:38:06.080Z,12.55
2022-12-17T00:40:52.261Z,11.32
2022-12-17T00:43:38.645Z,12.65
2022-12-17T00:46:25.367Z,10.93
2022-12-17T00:49:11.503Z,12.95
2022-12-17T00:51:57.475Z,11.45
2022-12-17T00:54:43.483Z,10.57
2022-12-17T00:57:29.564Z,7.43
2022-12-17T01:00:15.520Z,10.10
2022-12-17T01:03:01.567Z,3.45
2022-12-17T01:05:47.377Z,8.82
2022-12-17T01:08:34.777Z,7.90
2022-12-17T01:11:22.154Z,7.90
2022-12-17T01:14:08.302Z,4.97
2022-12-17T01:16:56.315Z,5.78
2022-12-17T01:19:42.503Z,6.68
2022-12-17T01:22:28.420Z,7.60
2022-12-17T01:25:14.271Z,5.35
2022-12-17T01:28:00.582Z,5.07
2022-12-17T01:30:46.924Z,6.55
2022-12-17T01:33:33.091Z,5.78
2022-12-17T01:36:19.857Z,4.40
2022-12-17T01:39:05.905Z,5.40
2022-12-17T01:41:52.111Z,5.63
2022-12-17T01:44:56.710Z,5.38
2022-12-17T01:47:42.952Z,4.68
2022-12-17T01:50:30.199Z,6.63
2022-12-17T01:53:17.490Z,4.97
2022-12-17T01:56:03.597Z,5.00
2022-12-17T01:58:51.141Z,3.40
2022-12-17T02:01:37.463Z,5.50
2022-12-17T02:04:23.597Z,7.38
2022-12-17T02:07:15.883Z,7.90
2022-12-17T02:10:24.401Z,4.80
2022-12-17T02:13:12.102Z,5.95
2022-12-17T02:16:05.756Z,6.68
2022-12-17T02:18:55.642Z,6.10
2022-12-17T02:21:42.670Z,7.45
2022-12-17T02:24:31.784Z,8.88
2022-12-17T02:27:21.068Z,5.05
2022-12-17T02:30:11.129Z,4.43
2022-12-17T02:32:58.346Z,5.50
2022-12-17T02:35:50.743Z,6.72
2022-12-17T02:38:41.771Z,5.82
2022-12-17T02:41:29.780Z,7.72
2022-12-17T02:44:16.053Z,5.82
2022-12-17T02:47:02.826Z,5.78
2022-12-17T02:49:49.265Z,5.07
2022-12-17T02:52:37.101Z,8.25
2022-12-17T02:55:23.647Z,6.35
2022-12-17T02:58:10.064Z,5.88
2022-12-17T03:00:57.334Z,4.70
2022-12-17T03:03:50.126Z,4.20
2022-12-17T03:06:36.231Z,3.45
2022-12-17T03:09:22.590Z,6.65
2022-12-17T03:12:08.718Z,5.25
2022-12-17T03:14:54.822Z,5.85
2022-12-17T03:17:41.063Z,7.68
2022-12-17T03:20:27.677Z,3.88
2022-12-17T03:23:20.634Z,6.72
2022-12-17T03:26:06.612Z,4.90
2022-12-17T03:28:52.900Z,5.32
2022-12-17T03:31:38.649Z,5.10
2022-12-17T03:34:24.943Z,5.38
2022-12-17T03:37:10.823Z,5.85
2022-12-17T03:39:56.769Z,7.30
2022-12-17T03:42:42.966Z,4.93
2022-12-17T03:45:29.504Z,5.00
2022-12-17T03:48:28.825Z,6.57
2022-12-17T03:51:15.314Z,6.68
2022-12-17T03:54:01.393Z,2.83
2022-12-17T03:56:47.684Z,5.28
2022-12-17T03:59:33.796Z,3.17
2022-12-17T04:02:20.376Z,4.90
2022-12-17T04:05:06.795Z,6.00
2022-12-17T04:07:53.060Z,6.82
2022-12-17T04:10:39.301Z,6.13
2022-12-17T04:13:25.676Z,6.28
2022-12-17T04:16:11.932Z,6.25
2022-12-17T04:18:58.371Z,4.10
2022-12-17T04:21:44.571Z,4.95
2022-12-17T04:24:30.267Z,3.85
2022-12-17T04:27:16.064Z,5.18
2022-12-17T04:30:15.636Z,4.18
2022-12-17T04:33:01.995Z,3.78
2022-12-17T04:35:48.244Z,2.58
2022-12-17T04:38:34.440Z,4.93
2022-12-17T04:41:20.328Z,4.30
2022-12-17T04:44:06.717Z,5.60
2022-12-17T04:46:52.629Z,5.03
2022-12-17T04:49:39.154Z,4.45
2022-12-17T04:52:25.207Z,5.97
2022-12-17T04:55:11.176Z,2.25
2022-12-17T04:57:57.073Z,2.78
2022-12-17T05:00:42.896Z,2.97
2022-12-17T05:03:33.545Z,2.63
2022-12-17T05:06:20.971Z,4.30
2022-12-17T05:09:07.225Z,3.45
2022-12-17T05:11:53.179Z,4.15
2022-12-17T05:14:39.359Z,5.13
2022-12-17T05:17:26.068Z,5.75
2022-12-17T05:20:14.854Z,5.20
2022-12-17T05:23:01.282Z,4.45
2022-12-17T05:25:47.317Z,5.32
2022-12-17T05:28:33.543Z,6.13
2022-12-17T05:31:19.616Z,6.15
2022-12-17T05:34:05.738Z,5.35
2022-12-17T05:36:51.872Z,7.70
2022-12-17T05:39:37.739Z,4.82
2022-12-17T05:42:23.973Z,8.85
2022-12-17T05:45:09.964Z,9.65
2022-12-17T05:47:55.910Z,9.32
2022-12-17T05:50:41.884Z,8.35
2022-12-17T05:53:28.931Z,6.15
2022-12-17T05:56:15.026Z,8.73
2022-12-17T05:59:00.956Z,9.40
2022-12-17T06:01:47.267Z,11.82
2022-12-17T06:04:33.463Z,8.40
2022-12-17T06:07:19.366Z,10.95
2022-12-17T06:10:13.289Z,7.85
2022-12-17T06:12:59.707Z,7.38
2022-12-17T06:15:45.694Z,11.05
2022-12-17T06:18:31.823Z,7.13
2022-12-17T06:21:17.988Z,7.25
2022-12-17T06:24:04.145Z,6.10
2022-12-17T06:26:50.244Z,8.75
2022-12-17T06:29:36.331Z,6.40
2022-12-17T06:32:22.461Z,10.18
2022-12-17T06:35:08.418Z,8.30
2022-12-17T06:37:54.322Z,8.15
2022-12-17T06:40:40.192Z,8.30
2022-12-17T06:43:26.301Z,8.25
2022-12-17T06:46:12.221Z,7.93
2022-12-17T06:48:58.178Z,9.93
2022-12-17T06:51:44.141Z,15.30
2022-12-17T06:54:29.933Z,10.70
2022-12-17T06:57:15.812Z,13.40
2022-12-17T07:00:01.940Z,10.80
2022-12-17T07:02:48.055Z,11.80
2022-12-17T07:05:34.385Z,10.45
2022-12-17T07:08:20.838Z,8.38
2022-12-17T07:11:06.684Z,8.80
2022-12-17T07:13:52.807Z,10.10
2022-12-17T07:16:39.130Z,8.48
2022-12-17T07:19:27.422Z,7.38
2022-12-17T07:22:13.611Z,10.00
2022-12-17T07:24:59.563Z,10.57
2022-12-17T07:27:47.354Z,8.70
2022-12-17T07:30:33.357Z,9.23
2022-12-17T07:33:22.059Z,32.28
2022-12-17T07:36:08.297Z,31.88
2022-12-17T07:38:54.473Z,13.63
2022-12-17T07:41:40.209Z,16.40
2022-12-17T07:44:26.579Z,11.90
2022-12-17T07:47:12.802Z,18.20
2022-12-17T07:49:58.690Z,12.98
2022-12-17T07:52:44.615Z,11.82
2022-12-17T07:55:30.666Z,13.82
2022-12-17T07:58:21.033Z,12.95
2022-12-17T08:01:07.494Z,14.13
2022-12-17T08:03:53.648Z,13.38
2022-12-17T08:06:39.928Z,16.67
2022-12-17T08:09:25.939Z,16.90
2022-12-17T08:12:12.432Z,16.83
2022-12-17T08:14:58.233Z,17.88
2022-12-17T08:17:44.614Z,21.98
2022-12-17T08:20:31.261Z,16.75
2022-12-17T08:23:20.563Z,17.70
2022-12-17T08:26:14.368Z,21.75
2022-12-17T08:29:00.178Z,20.38
2022-12-17T08:31:46.058Z,18.10
2022-12-17T08:34:31.941Z,17.20
2022-12-17T08:37:18.190Z,25.23
2022-12-17T08:40:04.131Z,28.00
2022-12-17T08:42:50.277Z,27.40
2022-12-17T08:45:36.170Z,29.63
2022-12-17T08:48:26.633Z,28.95
2022-12-17T08:51:12.897Z,28.13
2022-12-17T08:53:58.950Z,31.70
2022-12-17T08:56:45.282Z,27.70
2022-12-17T08:59:31.264Z,32.03
2022-12-17T09:02:17.619Z,30.83
2022-12-17T09:05:04.365Z,31.60
2022-12-17T09:07:50.553Z,27.80
2022-12-17T09:10:36.953Z,22.30
2022-12-17T09:13:23.341Z,31.58
2022-12-17T09:16:16.401Z,25.98
2022-12-17T09:19:02.447Z,21.02
2022-12-17T09:21:49.469Z,21.42
2022-12-17T09:24:35.994Z,21.02
2022-12-17T09:27:22.423Z,21.50
2022-12-17T09:30:08.450Z,21.75
2022-12-17T09:32:54.588Z,34.40
2022-12-17T09:35:40.389Z,30.83
2022-12-17T09:38:26.268Z,17.25
2022-12-17T09:41:12.189Z,22.20
2022-12-17T09:44:03.657Z,30.25
2022-12-17T09:46:53.496Z,21.35
2022-12-17T09:49:44.399Z,19.60
2022-12-17T09:52:50.213Z,26.38
2022-12-17T09:55:51.221Z,39.65
2022-12-17T09:58:41.712Z,40.10
2022-12-17T10:01:44.703Z,35.03
2022-12-17T10:04:33.940Z,51.65
2022-12-17T10:07:20.658Z,42.22
2022-12-17T10:10:10.421Z,38.53
2022-12-17T10:12:56.793Z,23.75
2022-12-17T10:15:42.887Z,23.70
2022-12-17T10:18:31.024Z,24.38
2022-12-17T10:21:18.378Z,32.17
2022-12-17T10:24:04.796Z,36.38
2022-12-17T10:26:52.944Z,23.38
2022-12-17T10:29:47.669Z,20.77
2022-12-17T10:32:34.355Z,16.48
2022-12-17T10:35:40.447Z,19.00
2022-12-17T10:38:33.258Z,17.60
2022-12-17T10:41:19.296Z,26.92
2022-12-17T10:44:05.566Z,24.80
2022-12-17T10:46:52.487Z,27.73
2022-12-17T10:49:42.367Z,24.73
2022-12-17T10:52:31.254Z,22.85
2022-12-17T10:55:19.200Z,19.55
2022-12-17T10:58:06.654Z,22.20
2022-12-17T11:00:56.057Z,20.40
2022-12-17T11:03:42.644Z,23.63
2022-12-17T11:06:28.967Z,18.90
2022-12-17T11:09:15.662Z,19.17
2022-12-17T11:12:07.094Z,17.27
2022-12-17T11:15:00.145Z,17.55
2022-12-17T11:17:46.677Z,16.85
2022-12-17T11:20:44.038Z,17.77
2022-12-17T11:23:35.464Z,15.32
2022-12-17T11:26:33.373Z,17.63
2022-12-17T11:29:19.819Z,13.38
2022-12-17T11:32:08.541Z,13.77
2022-12-17T11:35:08.374Z,9.57
2022-12-17T11:38:13.359Z,14.18
2022-12-17T11:41:04.713Z,12.25
2022-12-17T11:44:04.216Z,13.07
2022-12-17T11:46:53.433Z,12.48
2022-12-17T11:49:42.336Z,12.00
2022-12-17T11:52:35.677Z,16.73
2022-12-17T11:55:21.701Z,14.38
2022-12-17T11:58:16.443Z,13.90
2022-12-17T12:01:10.750Z,16.15
2022-12-17T12:03:59.900Z,15.45
2022-12-17T12:07:04.033Z,16.60
2022-12-17T12:09:55.686Z,13.27
2022-12-17T12:13:08.145Z,14.63
2022-12-17T12:16:02.945Z,12.50
2022-12-17T12:18:57.725Z,19.42
2022-12-17T12:21:55.516Z,12.70
2022-12-17T12:24:58.261Z,16.00
2022-12-17T12:27:53.369Z,18.48
2022-12-17T12:30:50.735Z,14.55
2022-12-17T12:33:57.698Z,13.05
2022-12-17T12:36:45.160Z,15.13
2022-12-17T12:39:32.334Z,12.23
2022-12-17T12:42:23.077Z,12.30
2022-12-17T12:45:09.314Z,16.75
2022-12-17T12:47:59.621Z,12.43
2022-12-17T12:50:50.291Z,7.50
2022-12-17T12:53:36.250Z,8.27
2022-12-17T12:56:22.281Z,10.50
2022-12-17T12:59:08.206Z,7.35
2022-12-17T13:01:56.216Z,7.68
2022-12-17T13:04:50.670Z,8.07
2022-12-17T13:07:22.196Z,19.45
2022-12-17T13:09:51.052Z,16.60
2022-12-17T13:12:20.442Z,16.05
2022-12-17T13:14:59.971Z,13.55
2022-12-17T13:17:33.394Z,12.82
2022-12-17T13:20:24.186Z,15.75
2022-12-17T13:22:53.275Z,12.18
2022-12-17T13:25:24.499Z,13.45
2022-12-17T13:27:51.880Z,13.55
2022-12-17T13:30:20.978Z,13.93
2022-12-17T13:32:55.811Z,9.90
2022-12-17T13:35:26.582Z,15.20
2022-12-17T13:38:03.663Z,13.55
2022-12-17T13:40:40.860Z,16.02
2022-12-17T13:43:16.231Z,13.68
2022-12-17T13:45:44.333Z,12.88
2022-12-17T13:48:20.800Z,11.98
2022-12-17T13:50:55.398Z,13.98
2022-12-17T13:53:22.857Z,19.65
2022-12-17T13:55:54.703Z,19.20
2022-12-17T13:58:33.028Z,23.65
2022-12-17T14:01:07.798Z,20.00
2022-12-17T14:04:05.783Z,21.30
2022-12-17T14:06:23.498Z,14.02
2022-12-17T14:08:52.145Z,14.00
2022-12-17T14:11:38.752Z,20.45
2022-12-17T14:14:12.590Z,29.17
2022-12-17T14:16:43.808Z,14.80
2022-12-17T14:19:14.859Z,14.63
2022-12-17T14:21:42.432Z,16.88
2022-12-17T14:24:13.901Z,16.80
2022-12-17T14:26:51.681Z,15.75
2022-12-17T14:29:32.780Z,16.00
2022-12-17T14:32:09.375Z,16.60
2022-12-17T14:34:43.196Z,19.08
2022-12-17T14:37:17.777Z,18.65
2022-12-17T14:39:46.516Z,19.63
2022-12-17T14:42:34.014Z,24.42
2022-12-17T14:45:22.086Z,18.88
2022-12-17T14:47:57.182Z,16.30
2022-12-17T14:52:53.774Z,17.75
2022-12-17T14:55:30.899Z,13.25
2022-12-17T14:58:09.609Z,17.83
2022-12-17T15:00:44.288Z,17.80
2022-12-17T15:03:19.967Z,18.70
2022-12-17T15:05:51.266Z,17.08
2022-12-17T15:08:18.826Z,18.70
2022-12-17T15:10:46.198Z,24.23
2022-12-17T15:13:13.550Z,17.38
2022-12-17T15:15:40.869Z,20.70
2022-12-17T15:18:08.599Z,21.38
2022-12-17T15:20:36.544Z,22.50
2022-12-17T15:23:03.974Z,17.23
2022-12-17T15:25:31.495Z,19.50
2022-12-17T15:27:59.069Z,19.52
2022-12-17T15:30:26.537Z,29.92
2022-12-17T15:32:53.892Z,23.58
2022-12-17T15:35:22.007Z,25.08
2022-12-17T15:37:49.317Z,24.48
2022-12-17T15:40:16.721Z,30.88
2022-12-17T15:43:06.119Z,26.77
2022-12-17T15:45:33.909Z,17.98
2022-12-17T15:48:01.236Z,23.92
2022-12-17T15:50:28.798Z,19.10
2022-12-17T15:52:56.135Z,22.50
2022-12-17T15:55:23.482Z,16.30
2022-12-17T15:57:50.911Z,19.38
2022-12-17T16:00:18.628Z,17.50
2022-12-17T16:02:46.274Z,15.55
2022-12-17T16:05:13.911Z,15.95
2022-12-17T16:07:43.521Z,14.77
2022-12-17T16:10:11.487Z,13.38
2022-12-17T16:12:38.943Z,15.15
2022-12-17T16:15:09.861Z,19.15
2022-12-17T16:17:37.282Z,15.48
2022-12-17T16:20:06.044Z,17.05
2022-12-17T16:22:33.462Z,17.08
2022-12-17T16:25:00.846Z,16.83
2022-12-17T16:27:28.226Z,19.23
2022-12-17T16:29:55.596Z,17.17
2022-12-17T16:32:22.885Z,16.58
2022-12-17T16:34:50.258Z,16.15
2022-12-17T16:37:17.820Z,19.20
2022-12-17T16:39:45.182Z,13.68
2022-12-17T16:42:12.498Z,16.65
2022-12-17T16:44:40.012Z,17.65
2022-12-17T16:47:07.290Z,20.83
2022-12-17T16:49:34.826Z,15.85
2022-12-17T16:52:03.507Z,18.23
2022-12-17T16:54:32.790Z,15.43
2022-12-17T16:57:03.195Z,17.05
2022-12-17T16:59:31.008Z,16.40
2022-12-17T17:01:58.485Z,16.92
2022-12-17T17:04:26.151Z,19.65
2022-12-17T17:06:55.236Z,18.05
2022-12-17T17:09:23.561Z,17.85
2022-12-17T17:11:52.259Z,15.35
2022-12-17T17:14:20.262Z,16.13
2022-12-17T17:16:47.571Z,19.27
2022-12-17T17:19:15.266Z,21.65
2022-12-17T17:21:43.646Z,27.05
2022-12-17T17:24:20.914Z,20.10
2022-12-17T17:26:49.240Z,19.42
2022-12-17T17:29:16.649Z,22.80
2022-12-17T17:34:31.633Z,22.20
2022-12-17T17:36:59.038Z,18.17
2022-12-17T17:39:27.463Z,18.85
2022-12-17T17:41:55.015Z,20.95
2022-12-17T17:44:22.379Z,17.75
2022-12-17T17:46:50.009Z,15.85
2022-12-17T17:49:17.408Z,13.60
2022-12-17T17:52:08.910Z,16.13
2022-12-17T17:54:32.777Z,17.67
2022-12-17T17:57:00.177Z,12.60
2022-12-17T17:59:33.192Z,12.48
2022-12-17T18:02:01.579Z,12.95
2022-12-17T18:04:29.146Z,13.40
2022-12-17T18:09:43.818Z,12.90
2022-12-17T18:12:29.824Z,8.60
2022-12-17T18:15:13.678Z,14.45
2022-12-17T18:17:41.969Z,7.82
2022-12-17T18:20:09.928Z,10.88
2022-12-17T18:22:40.681Z,9.05
2022-12-17T18:25:08.089Z,7.15
2022-12-17T18:27:35.664Z,11.32
2022-12-17T18:30:02.928Z,77.45
2022-12-17T18:32:30.228Z,45.90
2022-12-17T18:34:57.608Z,19.70
2022-12-17T18:37:24.936Z,20.35
2022-12-17T18:39:52.174Z,12.73
2022-12-17T18:42:38.444Z,14.57
2022-12-17T18:45:06.022Z,10.73
2022-12-17T18:47:33.493Z,12.65
2022-12-17T18:50:00.785Z,6.82
2022-12-17T18:52:28.159Z,5.78
2022-12-17T18:54:55.549Z,6.65
2022-12-17T18:57:22.954Z,5.65
2022-12-17T18:59:53.331Z,7.18
2022-12-17T19:02:20.852Z,7.25
2022-12-17T19:04:48.272Z,5.90
2022-12-17T19:07:16.000Z,5.50
2022-12-17T19:09:43.486Z,6.88
2022-12-17T19:12:11.405Z,5.57
2022-12-17T19:14:38.736Z,4.78
2022-12-17T19:17:06.372Z,7.50
2022-12-17T19:19:33.749Z,7.97
2022-12-17T19:22:01.180Z,7.90
2022-12-17T19:24:28.603Z,9.55
2022-12-17T19:26:56.987Z,6.55
2022-12-17T19:29:24.517Z,7.10
2022-12-17T19:31:52.169Z,6.35
2022-12-17T19:34:20.187Z,6.47
2022-12-17T19:36:47.602Z,5.97
2022-12-17T19:39:16.248Z,6.03
2022-12-17T19:41:43.772Z,5.18
2022-12-17T19:44:15.075Z,9.60
2022-12-17T19:46:43.204Z,8.45
2022-12-17T19:49:14.171Z,8.00
2022-12-17T19:51:44.259Z,8.52
2022-12-17T19:54:17.268Z,9.80
2022-12-17T19:56:45.517Z,9.18
2022-12-17T19:59:13.694Z,5.32
2022-12-17T20:01:45.425Z,7.63
2022-12-17T20:04:13.613Z,8.70
2022-12-17T20:06:41.056Z,7.72
2022-12-17T20:09:08.492Z,6.20
2022-12-17T20:11:36.354Z,5.60
2022-12-17T20:14:06.908Z,7.40
2022-12-17T20:16:35.767Z,6.57
2022-12-17T20:19:04.196Z,6.25
2022-12-17T20:21:31.610Z,7.13
2022-12-17T20:23:59.000Z,5.65
2022-12-17T20:26:26.462Z,9.60
2022-12-17T20:28:53.811Z,7.32
2022-12-17T20:31:21.170Z,10.00
2022-12-17T20:33:48.700Z,10.35
2022-12-17T20:36:17.677Z,9.05
2022-12-17T20:38:45.522Z,6.00
2022-12-17T20:41:20.428Z,6.40
2022-12-17T20:43:48.328Z,5.18
2022-12-17T20:46:15.798Z,7.03
2022-12-17T20:48:43.884Z,6.40
2022-12-17T20:51:12.913Z,6.35
2022-12-17T20:53:40.447Z,6.60
2022-12-17T20:56:09.725Z,6.55
2022-12-17T20:58:37.732Z,7.20
2022-12-17T21:01:06.396Z,6.15
2022-12-17T21:03:34.488Z,7.75
2022-12-17T21:06:09.183Z,5.25
2022-12-17T21:08:37.124Z,5.93
2022-12-17T21:11:04.846Z,6.63
2022-12-17T21:13:32.347Z,9.95
2022-12-17T21:16:00.503Z,5.45
2022-12-17T21:18:28.760Z,6.15
2022-12-17T21:21:00.434Z,9.63
2022-12-17T21:23:28.774Z,9.10
2022-12-17T21:26:10.252Z,11.95
2022-12-17T21:28:39.093Z,6.95
2022-12-17T21:31:06.891Z,8.80
2022-12-17T21:33:34.228Z,8.73
2022-12-17T21:36:07.835Z,7.80
2022-12-17T21:38:35.846Z,6.15
2022-12-17T21:41:08.068Z,8.02
2022-12-17T21:43:37.223Z,7.10
2022-12-17T21:46:05.661Z,5.90
2022-12-17T21:48:39.707Z,6.72
2022-12-17T21:51:10.122Z,8.75
2022-12-17T21:53:42.093Z,6.07
2022-12-17T21:56:11.302Z,8.50
2022-12-17T21:58:39.347Z,6.53
2022-12-17T22:01:16.364Z,5.68
2022-12-17T22:03:47.675Z,5.78
2022-12-17T22:06:21.796Z,6.65
2022-12-17T22:08:50.285Z,6.55
2022-12-17T22:11:25.141Z,8.80
2022-12-17T22:14:07.430Z,9.43
2022-12-17T22:16:39.743Z,7.00
2022-12-17T22:19:07.821Z,8.13
2022-12-17T22:21:35.955Z,5.22
2022-12-17T22:24:03.839Z,8.82
2022-12-17T22:26:31.346Z,7.60
2022-12-17T22:28:58.678Z,5.55
2022-12-17T22:31:44.450Z,7.20
2022-12-17T22:35:04.704Z,6.70
2022-12-17T22:40:15.937Z,3.80
2022-12-17T22:44:28.890Z,5.85
2022-12-17T22:44:36.666Z,5.20
2022-12-17T22:45:41.897Z,4.25
2022-12-17T22:48:10.034Z,5.78
2022-12-17T22:50:45.596Z,6.35
2022-12-17T22:53:15.922Z,5.95
2022-12-17T22:55:43.855Z,4.53
2022-12-17T22:58:11.487Z,4.97
2022-12-17T23:00:39.080Z,5.53
2022-12-17T23:03:06.542Z,8.52
2022-12-17T23:05:33.953Z,6.40
2022-12-17T23:08:01.497Z,5.15
2022-12-17T23:10:29.086Z,7.82
2022-12-17T23:12:57.255Z,5.85
2022-12-17T23:15:27.338Z,4.28
2022-12-17T23:17:56.387Z,10.25
2022-12-17T23:20:24.401Z,4.88
2022-12-17T23:22:51.920Z,4.00
2022-12-17T23:25:19.259Z,4.63
2022-12-17T23:27:47.175Z,7.22
2022-12-17T23:30:15.668Z,5.47
2022-12-17T23:32:43.238Z,5.20
2022-12-17T23:35:10.993Z,5.22
2022-12-17T23:37:40.161Z,6.85
2022-12-17T23:40:11.325Z,9.07
2022-12-17T23:42:38.851Z,4.68
2022-12-17T23:45:06.785Z,5.28
2022-12-17T23:47:34.141Z,6.53
2022-12-17T23:50:01.705Z,4.97
2022-12-17T23:52:28.974Z,3.92
2022-12-17T23:54:56.562Z,4.63
2022-12-17T23:57:23.838Z,4.80
2022-12-17T23:59:51.248Z,3.50
